createdAt,value
2023-05-04T00:00:17.342Z,2.50
2023-05-04T00:02:44.949Z,2.60
2023-05-04T00:05:12.521Z,2.70
2023-05-04T00:07:40.076Z,2.55
2023-05-04T00:10:08.368Z,2.70
2023-05-04T00:12:36.226Z,2.60
2023-05-04T00:15:04.128Z,2.80
2023-05-04T00:17:33.332Z,2.70
2023-05-04T00:20:00.866Z,2.60
2023-05-04T00:22:28.425Z,2.75
2023-05-04T00:24:55.893Z,2.50
2023-05-04T00:27:23.440Z,2.70
2023-05-04T00:29:51.049Z,2.70
2023-05-04T00:32:18.529Z,2.60
2023-05-04T00:34:47.392Z,2.60
2023-05-04T00:37:14.855Z,2.70
2023-05-04T00:39:42.414Z,2.70
2023-05-04T00:42:09.881Z,2.70
2023-05-04T00:44:41.098Z,2.58
2023-05-04T00:47:08.853Z,2.60
2023-05-04T00:49:36.559Z,2.60
2023-05-04T00:52:05.754Z,2.65
2023-05-04T00:54:33.408Z,2.40
2023-05-04T00:57:02.075Z,2.60
2023-05-04T00:59:29.626Z,2.70
2023-05-04T01:01:57.195Z,2.70
2023-05-04T01:04:24.690Z,2.70
2023-05-04T01:06:54.351Z,2.70
2023-05-04T01:09:29.109Z,2.72
2023-05-04T01:12:06.990Z,2.70
2023-05-04T01:14:34.943Z,2.70
2023-05-04T01:17:04.454Z,2.50
2023-05-04T01:19:32.180Z,2.40
2023-05-04T01:22:01.070Z,2.70
2023-05-04T01:24:29.238Z,2.70
2023-05-04T01:26:57.603Z,2.65
2023-05-04T01:29:28.520Z,2.50
2023-05-04T01:31:56.583Z,2.70
2023-05-04T01:34:24.107Z,2.70
2023-05-04T01:36:51.933Z,2.60
2023-05-04T01:39:21.501Z,2.50
2023-05-04T01:41:49.074Z,2.80
2023-05-04T01:44:16.583Z,2.70
2023-05-04T01:46:44.108Z,2.53
2023-05-04T01:49:11.572Z,2.33
2023-05-04T01:51:39.037Z,2.70
2023-05-04T01:54:06.887Z,2.63
2023-05-04T01:56:35.748Z,2.70
2023-05-04T01:59:03.201Z,2.70
2023-05-04T02:01:30.740Z,2.60
2023-05-04T02:03:58.393Z,2.42
2023-05-04T02:06:26.090Z,2.67
2023-05-04T02:08:53.550Z,2.60
2023-05-04T02:11:21.678Z,2.58
2023-05-04T02:13:50.523Z,2.60
2023-05-04T02:16:18.200Z,2.60
2023-05-04T02:18:46.464Z,2.70
2023-05-04T02:21:14.133Z,2.60
2023-05-04T02:23:41.598Z,2.80
2023-05-04T02:26:09.096Z,2.50
2023-05-04T02:28:36.642Z,2.60
2023-05-04T02:31:05.496Z,2.40
2023-05-04T02:33:32.991Z,2.60
2023-05-04T02:36:00.451Z,2.70
2023-05-04T02:38:28.136Z,2.45
2023-05-04T02:40:55.740Z,2.72
2023-05-04T02:43:23.224Z,2.70
2023-05-04T02:45:50.761Z,2.60
2023-05-04T02:48:19.661Z,2.70
2023-05-04T02:50:47.471Z,2.50
2023-05-04T02:53:14.988Z,2.80
2023-05-04T02:55:42.503Z,2.50
2023-05-04T02:58:10.074Z,2.50
2023-05-04T03:00:37.555Z,2.80
2023-05-04T03:03:05.169Z,2.50
2023-05-04T03:05:34.061Z,2.60
2023-05-04T03:08:01.573Z,2.40
2023-05-04T03:10:29.042Z,2.80
2023-05-04T03:12:56.640Z,2.70
2023-05-04T03:15:24.126Z,2.60
2023-05-04T03:17:53.664Z,2.75
2023-05-04T03:20:21.224Z,2.80
2023-05-04T03:22:50.105Z,2.40
2023-05-04T03:25:17.717Z,2.67
2023-05-04T03:27:45.218Z,2.80
2023-05-04T03:30:13.558Z,2.78
2023-05-04T03:32:41.203Z,2.67
2023-05-04T03:35:09.224Z,2.45
2023-05-04T03:37:36.707Z,2.80
2023-05-04T03:40:06.398Z,2.88
2023-05-04T03:42:34.074Z,2.70
2023-05-04T03:45:03.891Z,2.80
2023-05-04T03:47:31.904Z,2.80
2023-05-04T03:49:59.387Z,2.50
2023-05-04T03:52:26.876Z,2.90
2023-05-04T03:54:54.375Z,2.90
2023-05-04T03:57:24.230Z,2.80
2023-05-04T03:59:51.696Z,2.80
2023-05-04T04:02:19.198Z,2.90
2023-05-04T04:04:46.737Z,2.80
2023-05-04T04:07:14.289Z,2.90
2023-05-04T04:09:41.748Z,2.67
2023-05-04T04:12:09.288Z,2.90
2023-05-04T04:14:38.208Z,2.83
2023-05-04T04:17:05.751Z,3.00
2023-05-04T04:19:33.289Z,3.00
2023-05-04T04:22:00.826Z,2.90
2023-05-04T04:24:28.396Z,2.90
2023-05-04T04:26:56.003Z,2.83
2023-05-04T04:29:23.538Z,2.90
2023-05-04T04:31:52.568Z,2.83
2023-05-04T04:34:20.128Z,2.90
2023-05-04T04:36:47.715Z,2.70
2023-05-04T04:39:16.944Z,2.90
2023-05-04T04:41:44.519Z,2.80
2023-05-04T04:44:12.636Z,2.80
2023-05-04T04:46:40.330Z,2.78
2023-05-04T04:49:09.314Z,2.67
2023-05-04T04:51:36.886Z,2.90
2023-05-04T04:54:04.362Z,2.75
2023-05-04T04:56:31.895Z,2.70
2023-05-04T04:58:59.508Z,2.90
2023-05-04T05:01:27.304Z,2.80
2023-05-04T05:03:54.807Z,2.75
2023-05-04T05:06:23.950Z,2.80
2023-05-04T05:08:51.508Z,2.60
2023-05-04T05:11:19.025Z,2.58
2023-05-04T05:13:46.503Z,2.60
2023-05-04T05:16:14.267Z,2.80
2023-05-04T05:18:42.281Z,2.90
2023-05-04T05:21:10.319Z,2.70
2023-05-04T05:23:39.371Z,2.90
2023-05-04T05:26:06.943Z,2.80
2023-05-04T05:28:34.518Z,2.70
2023-05-04T05:31:02.065Z,2.78
2023-05-04T05:33:29.926Z,2.72
2023-05-04T05:35:57.499Z,2.88
2023-05-04T05:38:24.961Z,2.65
2023-05-04T05:40:53.793Z,2.75
2023-05-04T05:43:21.335Z,2.60
2023-05-04T05:45:48.902Z,2.67
2023-05-04T05:48:16.558Z,2.78
2023-05-04T05:50:44.082Z,2.85
2023-05-04T05:53:11.568Z,2.60
2023-05-04T05:55:39.104Z,2.58
2023-05-04T05:58:08.560Z,2.60
2023-05-04T06:00:36.033Z,2.60
2023-05-04T06:03:03.819Z,2.80
2023-05-04T06:05:31.349Z,2.40
2023-05-04T06:07:58.816Z,2.30
2023-05-04T06:10:26.796Z,2.15
2023-05-04T06:12:54.372Z,2.67
2023-05-04T06:15:23.210Z,2.70
2023-05-04T06:17:50.771Z,2.65
2023-05-04T06:20:18.412Z,2.40
2023-05-04T06:22:45.888Z,2.40
2023-05-04T06:25:13.637Z,2.70
2023-05-04T06:27:41.240Z,2.33
2023-05-04T06:30:09.487Z,2.50
2023-05-04T06:32:38.413Z,2.60
2023-05-04T06:35:06.947Z,2.55
2023-05-04T06:37:34.466Z,2.40
2023-05-04T06:40:02.004Z,2.60
2023-05-04T06:42:30.346Z,2.67
2023-05-04T06:44:58.151Z,2.60
2023-05-04T06:47:25.736Z,2.53
2023-05-04T06:49:54.658Z,2.30
2023-05-04T06:52:22.623Z,2.70
2023-05-04T06:54:50.150Z,2.60
2023-05-04T06:57:17.768Z,2.55
2023-05-04T06:59:45.253Z,2.40
2023-05-04T07:02:12.743Z,2.60
2023-05-04T07:04:40.372Z,2.42
2023-05-04T07:07:09.212Z,2.60
2023-05-04T07:09:36.720Z,2.67
2023-05-04T07:12:04.583Z,2.63
2023-05-04T07:14:32.081Z,2.67
2023-05-04T07:17:00.797Z,2.33
2023-05-04T07:19:28.330Z,2.50
2023-05-04T07:21:56.845Z,2.38
2023-05-04T07:24:25.684Z,2.10
2023-05-04T07:26:53.376Z,2.40
2023-05-04T07:29:20.958Z,2.50
2023-05-04T07:31:48.488Z,2.55
2023-05-04T07:34:16.066Z,2.25
2023-05-04T07:36:43.671Z,2.35
2023-05-04T07:39:11.882Z,2.40
2023-05-04T07:41:40.804Z,2.60
2023-05-04T07:44:10.440Z,2.40
2023-05-04T07:46:38.246Z,2.30
2023-05-04T07:49:05.864Z,2.28
2023-05-04T07:51:33.414Z,2.40
2023-05-04T07:54:00.893Z,2.42
2023-05-04T07:56:28.354Z,2.40
2023-05-04T07:58:57.206Z,2.33
2023-05-04T08:01:25.144Z,2.40
2023-05-04T08:03:52.675Z,2.47
2023-05-04T08:06:20.132Z,2.50
2023-05-04T08:08:51.968Z,2.60
2023-05-04T08:11:21.154Z,2.40
2023-05-04T08:13:49.630Z,2.50
2023-05-04T08:16:18.702Z,2.03
2023-05-04T08:18:46.358Z,2.00
2023-05-04T08:21:14.653Z,2.63
2023-05-04T08:23:42.164Z,2.35
2023-05-04T08:26:09.838Z,2.38
2023-05-04T08:28:38.708Z,2.38
2023-05-04T08:31:06.540Z,2.30
2023-05-04T08:33:35.782Z,2.60
2023-05-04T08:36:03.960Z,2.60
2023-05-04T08:38:31.598Z,2.40
2023-05-04T08:40:59.102Z,2.30
2023-05-04T08:43:26.597Z,2.67
2023-05-04T08:45:54.191Z,2.40
2023-05-04T08:48:21.699Z,2.58
2023-05-04T08:50:50.603Z,2.55
2023-05-04T08:53:20.084Z,2.33
2023-05-04T08:55:48.437Z,2.40
2023-05-04T08:58:17.512Z,2.50
2023-05-04T09:00:45.610Z,2.10
2023-05-04T09:03:14.354Z,2.75
2023-05-04T09:05:43.297Z,2.65
2023-05-04T09:08:12.350Z,2.50
2023-05-04T09:10:40.068Z,2.60
2023-05-04T09:13:08.338Z,2.40
2023-05-04T09:15:35.880Z,2.40
2023-05-04T09:18:04.966Z,2.70
2023-05-04T09:20:43.466Z,2.50
2023-05-04T09:23:12.444Z,2.55
2023-05-04T09:25:48.305Z,2.40
2023-05-04T09:28:16.020Z,2.38
2023-05-04T09:30:44.023Z,2.38
2023-05-04T09:33:11.752Z,2.70
2023-05-04T09:35:41.307Z,2.55
2023-05-04T09:38:08.957Z,2.70
2023-05-04T09:40:40.982Z,2.53
2023-05-04T09:43:08.628Z,2.50
2023-05-04T09:45:40.017Z,2.90
2023-05-04T09:48:16.303Z,2.80
2023-05-04T09:50:48.551Z,2.65
2023-05-04T09:53:16.411Z,2.80
2023-05-04T09:55:46.625Z,2.58
2023-05-04T09:58:16.739Z,2.50
2023-05-04T10:00:44.609Z,2.60
2023-05-04T10:03:14.417Z,2.50
2023-05-04T10:05:42.117Z,2.70
2023-05-04T10:08:09.775Z,2.42
2023-05-04T10:10:39.396Z,2.80
2023-05-04T10:13:08.407Z,2.47
2023-05-04T10:15:37.154Z,2.55
2023-05-04T10:18:08.700Z,2.80
2023-05-04T10:20:44.871Z,2.80
2023-05-04T10:23:23.942Z,2.38
2023-05-04T10:26:18.622Z,3.00
2023-05-04T10:28:53.776Z,2.70
2023-05-04T10:31:22.025Z,2.58
2023-05-04T10:33:49.805Z,3.00
2023-05-04T10:36:17.393Z,2.80
2023-05-04T10:38:44.921Z,2.50
2023-05-04T10:41:15.897Z,2.70
2023-05-04T10:43:48.542Z,2.80
2023-05-04T10:46:21.212Z,2.83
2023-05-04T10:48:49.189Z,2.97
2023-05-04T10:51:20.628Z,3.00
2023-05-04T10:53:48.271Z,2.80
2023-05-04T10:59:09.946Z,2.80
2023-05-04T11:01:44.706Z,2.72
2023-05-04T11:04:19.618Z,2.80
2023-05-04T11:06:56.794Z,2.47
2023-05-04T11:09:24.484Z,2.80
2023-05-04T11:11:52.748Z,2.95
2023-05-04T11:14:27.276Z,2.90
2023-05-04T11:17:19.779Z,2.50
2023-05-04T11:19:53.849Z,2.95
2023-05-04T11:22:21.513Z,2.88
2023-05-04T11:24:49.535Z,2.67
2023-05-04T11:27:23.951Z,2.88
2023-05-04T11:29:55.415Z,2.63
2023-05-04T11:32:33.841Z,3.00
2023-05-04T11:35:01.429Z,2.78
2023-05-04T11:37:29.374Z,3.00
2023-05-04T11:39:58.066Z,2.90
2023-05-04T11:42:26.073Z,3.05
2023-05-04T11:44:53.724Z,2.95
2023-05-04T11:47:21.404Z,2.92
2023-05-04T11:49:50.407Z,2.78
2023-05-04T11:52:17.946Z,2.90
2023-05-04T11:54:55.878Z,2.60
2023-05-04T11:57:23.569Z,2.85
2023-05-04T11:59:51.272Z,2.83
2023-05-04T12:02:18.825Z,2.95
2023-05-04T12:04:46.469Z,3.00
2023-05-04T12:07:15.960Z,2.70
2023-05-04T12:09:47.006Z,2.78
2023-05-04T12:12:16.305Z,2.70
2023-05-04T12:14:50.326Z,2.80
2023-05-04T12:17:17.835Z,2.97
2023-05-04T12:19:48.925Z,2.70
2023-05-04T12:22:19.421Z,2.70
2023-05-04T12:24:46.923Z,2.70
2023-05-04T12:27:14.653Z,2.90
2023-05-04T12:29:42.213Z,2.80
2023-05-04T12:32:09.780Z,2.80
2023-05-04T12:34:38.021Z,2.80
2023-05-04T12:37:05.779Z,3.00
2023-05-04T12:39:34.610Z,2.80
2023-05-04T12:42:02.120Z,2.80
2023-05-04T12:44:29.690Z,3.00
2023-05-04T12:46:57.210Z,2.80
2023-05-04T12:49:25.071Z,2.83
2023-05-04T12:51:52.828Z,2.80
2023-05-04T12:54:20.321Z,3.08
2023-05-04T12:56:49.261Z,3.00
2023-05-04T12:59:16.747Z,2.92
2023-05-04T13:01:44.346Z,3.10
2023-05-04T13:04:12.041Z,2.63
2023-05-04T13:06:39.660Z,2.78
2023-05-04T13:09:07.192Z,3.00
2023-05-04T13:11:34.738Z,2.88
2023-05-04T13:14:03.744Z,2.60
2023-05-04T13:16:31.783Z,3.00
2023-05-04T13:18:59.438Z,2.80
2023-05-04T13:21:26.934Z,3.10
2023-05-04T13:23:54.425Z,3.00
2023-05-04T13:26:22.021Z,2.75
2023-05-04T13:28:51.212Z,2.90
2023-05-04T13:31:20.637Z,2.90
2023-05-04T13:33:50.393Z,2.80
2023-05-04T13:36:18.183Z,3.00
2023-05-04T13:38:45.673Z,2.92
2023-05-04T13:41:13.200Z,3.10
2023-05-04T13:43:40.755Z,2.85
2023-05-04T13:46:08.558Z,3.00
2023-05-04T13:48:37.997Z,3.00
2023-05-04T13:51:05.577Z,2.90
2023-05-04T13:53:33.164Z,2.95
2023-05-04T13:56:00.736Z,2.90
2023-05-04T13:58:28.388Z,3.00
2023-05-04T14:00:57.848Z,3.03
2023-05-04T14:03:25.534Z,2.90
2023-05-04T14:05:54.403Z,2.90
2023-05-04T14:08:22.025Z,3.00
2023-05-04T14:10:49.529Z,3.00
2023-05-04T14:13:19.662Z,3.10
2023-05-04T14:15:48.248Z,3.08
2023-05-04T14:18:15.924Z,3.10
2023-05-04T14:20:43.503Z,3.00
2023-05-04T14:23:12.366Z,2.90
2023-05-04T14:25:42.009Z,2.90
2023-05-04T14:28:09.572Z,3.10
2023-05-04T14:30:37.196Z,2.80
2023-05-04T14:33:04.842Z,3.00
2023-05-04T14:35:32.315Z,2.90
2023-05-04T14:38:00.252Z,2.80
2023-05-04T14:40:29.937Z,3.00
2023-05-04T14:42:59.637Z,2.80
2023-05-04T14:45:27.141Z,3.00
2023-05-04T14:47:54.767Z,2.70
2023-05-04T14:50:22.465Z,2.90
2023-05-04T14:52:50.054Z,2.97
2023-05-04T14:55:17.852Z,3.00
2023-05-04T14:57:46.785Z,3.00
2023-05-04T15:00:15.080Z,3.00
2023-05-04T15:02:42.686Z,2.95
2023-05-04T15:05:12.454Z,2.90
2023-05-04T15:07:40.262Z,2.90
2023-05-04T15:10:08.947Z,2.92
2023-05-04T15:12:37.596Z,2.80
2023-05-04T15:15:08.169Z,2.80
2023-05-04T15:17:35.727Z,2.90
2023-05-04T15:20:03.345Z,2.85
2023-05-04T15:22:30.869Z,2.80
2023-05-04T15:24:58.544Z,2.80
2023-05-04T15:27:26.168Z,2.80
2023-05-04T15:29:54.794Z,2.90
2023-05-04T15:32:23.719Z,3.10
2023-05-04T15:35:03.782Z,2.80
2023-05-04T15:37:33.228Z,2.80
2023-05-04T15:40:02.476Z,2.90
2023-05-04T15:42:30.290Z,3.00
2023-05-04T15:44:57.838Z,3.10
2023-05-04T15:47:27.056Z,0.80
2023-05-04T15:49:54.597Z,0.60
2023-05-04T15:52:22.396Z,4.30
2023-05-04T15:54:50.028Z,0.50
2023-05-04T15:57:17.509Z,0.50
2023-05-04T15:59:47.684Z,0.50
2023-05-04T16:02:15.252Z,0.60
2023-05-04T16:04:44.093Z,0.50
2023-05-04T16:07:11.795Z,0.60
2023-05-04T16:09:39.284Z,0.50
2023-05-04T16:12:07.024Z,0.50
2023-05-04T16:14:34.725Z,0.50
2023-05-04T16:17:02.301Z,0.50
2023-05-04T16:19:30.062Z,0.60
2023-05-04T16:21:59.128Z,0.47
2023-05-04T16:24:26.788Z,0.50
2023-05-04T16:26:54.278Z,0.50
2023-05-04T16:29:21.780Z,0.50
2023-05-04T16:31:49.285Z,0.50
2023-05-04T16:34:16.764Z,0.50
2023-05-04T16:36:44.982Z,0.40
2023-05-04T16:39:14.872Z,0.40
2023-05-04T16:41:46.523Z,0.50
2023-05-04T16:46:41.417Z,0.50
2023-05-04T16:49:10.459Z,0.40
2023-05-04T16:51:38.869Z,0.50
2023-05-04T16:54:06.770Z,0.50
2023-05-04T16:56:36.537Z,0.40
2023-05-04T16:59:07.485Z,0.40
2023-05-04T17:01:35.514Z,0.50
2023-05-04T17:04:03.108Z,0.50
2023-05-04T17:06:31.359Z,0.50
2023-05-04T17:08:58.953Z,0.50
2023-05-04T17:11:26.753Z,0.40
2023-05-04T17:13:56.019Z,0.50
2023-05-04T17:16:23.502Z,0.40
2023-05-04T17:18:50.983Z,0.50
2023-05-04T17:21:18.586Z,0.50
2023-05-04T17:23:46.114Z,0.50
2023-05-04T17:26:13.607Z,0.50
2023-05-04T17:28:41.207Z,0.40
2023-05-04T17:31:12.475Z,0.50
2023-05-04T17:33:40.128Z,0.50
2023-05-04T17:36:08.018Z,0.50
2023-05-04T17:38:35.578Z,0.50
2023-05-04T17:41:03.145Z,0.50
2023-05-04T17:43:31.046Z,0.50
2023-05-04T17:45:59.771Z,0.50
2023-05-04T17:48:28.713Z,0.40
2023-05-04T17:50:56.305Z,0.40
2023-05-04T17:53:23.895Z,0.40
2023-05-04T17:55:51.379Z,0.40
2023-05-04T17:58:19.039Z,0.40
2023-05-04T18:00:46.584Z,0.40
2023-05-04T18:03:14.340Z,0.45
2023-05-04T18:05:43.265Z,0.60
2023-05-04T18:08:10.767Z,0.40
2023-05-04T18:10:38.511Z,0.60
2023-05-04T18:13:06.088Z,0.40
2023-05-04T18:15:33.588Z,0.50
2023-05-04T18:18:01.269Z,0.40
2023-05-04T18:20:28.889Z,0.40
2023-05-04T18:22:57.743Z,0.40
2023-05-04T18:25:25.667Z,0.40
2023-05-04T18:27:53.181Z,0.40
2023-05-04T18:30:20.660Z,0.50
2023-05-04T18:32:48.914Z,0.40
2023-05-04T18:35:17.438Z,0.30
2023-05-04T18:37:44.920Z,0.55
2023-05-04T18:40:14.270Z,0.30
2023-05-04T18:42:41.774Z,0.35
2023-05-04T18:45:11.180Z,0.30
2023-05-04T18:47:38.828Z,0.40
2023-05-04T18:50:07.138Z,0.40
2023-05-04T18:52:34.861Z,0.40
2023-05-04T18:55:02.488Z,0.38
2023-05-04T18:57:31.455Z,0.35
2023-05-04T18:59:58.923Z,0.40
2023-05-04T19:02:26.995Z,0.40
2023-05-04T19:04:54.475Z,0.40
2023-05-04T19:07:21.902Z,0.40
2023-05-04T19:09:49.433Z,0.40
2023-05-04T19:12:16.906Z,0.40
2023-05-04T19:14:45.850Z,0.40
2023-05-04T19:17:14.681Z,0.40
2023-05-04T19:19:42.236Z,0.30
2023-05-04T19:22:11.359Z,0.40
2023-05-04T19:24:38.910Z,0.40
2023-05-04T19:27:06.429Z,0.40
2023-05-04T19:29:33.965Z,0.40
2023-05-04T19:32:11.954Z,0.40
2023-05-04T19:34:47.653Z,0.40
2023-05-04T19:37:15.181Z,0.32
2023-05-04T19:39:42.658Z,0.40
2023-05-04T19:42:10.351Z,0.35
2023-05-04T19:44:37.878Z,0.30
2023-05-04T19:47:07.059Z,0.30
2023-05-04T19:49:34.989Z,0.40
2023-05-04T19:52:02.621Z,0.40
2023-05-04T19:54:30.242Z,0.30
2023-05-04T19:56:57.927Z,0.40
2023-05-04T19:59:25.514Z,0.40
2023-05-04T20:01:53.034Z,0.40
2023-05-04T20:04:21.946Z,0.50
2023-05-04T20:06:49.438Z,0.40
2023-05-04T20:09:16.970Z,0.40
2023-05-04T20:11:44.430Z,0.40
2023-05-04T20:14:12.007Z,0.40
2023-05-04T20:16:39.554Z,0.38
2023-05-04T20:19:07.097Z,0.40
2023-05-04T20:21:35.956Z,0.50
2023-05-04T20:24:04.087Z,0.40
2023-05-04T20:26:31.732Z,0.38
2023-05-04T20:28:59.237Z,0.40
2023-05-04T20:31:26.920Z,0.43
2023-05-04T20:33:54.441Z,0.40
2023-05-04T20:36:21.968Z,0.40
2023-05-04T20:38:50.837Z,0.40
2023-05-04T20:41:18.762Z,0.50
2023-05-04T20:43:46.275Z,0.40
2023-05-04T20:46:13.783Z,0.38
2023-05-04T20:48:42.307Z,0.40
2023-05-04T20:51:14.446Z,0.40
2023-05-04T20:53:42.782Z,0.40
2023-05-04T20:56:12.212Z,0.40
2023-05-04T20:58:39.724Z,0.50
2023-05-04T21:01:07.438Z,0.43
2023-05-04T21:03:35.833Z,0.40
2023-05-04T21:06:03.689Z,0.50
2023-05-04T21:08:31.212Z,0.45
2023-05-04T21:10:58.745Z,0.50
2023-05-04T21:13:27.742Z,0.40
2023-05-04T21:15:55.326Z,0.50
2023-05-04T21:18:24.327Z,0.50
2023-05-04T21:20:51.860Z,0.50
2023-05-04T21:23:19.382Z,0.40
2023-05-04T21:25:47.129Z,0.50
2023-05-04T21:28:14.616Z,0.50
2023-05-04T21:30:43.500Z,0.40
2023-05-04T21:33:10.969Z,0.40
2023-05-04T21:35:38.436Z,0.40
2023-05-04T21:38:05.947Z,0.50
2023-05-04T21:40:33.366Z,0.50
2023-05-04T21:43:01.888Z,0.40
2023-05-04T21:45:31.244Z,0.50
2023-05-04T21:48:02.279Z,0.50
2023-05-04T21:50:29.866Z,0.40
2023-05-04T21:52:57.346Z,0.50
2023-05-04T21:55:24.848Z,0.50
2023-05-04T21:57:52.371Z,0.50
2023-05-04T22:00:20.100Z,0.45
2023-05-04T22:02:47.602Z,0.50
2023-05-04T22:05:22.054Z,0.40
2023-05-04T22:07:49.990Z,0.40
2023-05-04T22:10:17.623Z,0.52
2023-05-04T22:12:45.388Z,0.40
2023-05-04T22:15:13.956Z,0.50
2023-05-04T22:17:41.510Z,0.50
2023-05-04T22:20:10.420Z,0.50
2023-05-04T22:22:39.274Z,0.50
2023-05-04T22:25:07.135Z,0.40
2023-05-04T22:27:34.659Z,0.50
2023-05-04T22:30:02.105Z,0.60
2023-05-04T22:32:29.612Z,0.50
2023-05-04T22:34:57.641Z,0.50
2023-05-04T22:37:25.074Z,0.50
2023-05-04T22:39:53.887Z,0.50
2023-05-04T22:42:21.439Z,0.50
2023-05-04T22:44:48.894Z,0.60
2023-05-04T22:47:16.550Z,0.50
2023-05-04T22:49:44.089Z,0.60
2023-05-04T22:52:11.541Z,0.50
2023-05-04T22:54:39.040Z,0.43
2023-05-04T22:57:07.867Z,0.50
2023-05-04T22:59:35.700Z,0.45
2023-05-04T23:02:03.349Z,0.50
2023-05-04T23:04:31.154Z,0.50
2023-05-04T23:06:58.666Z,0.50
2023-05-04T23:09:26.133Z,0.40
2023-05-04T23:11:53.865Z,0.50
2023-05-04T23:14:22.755Z,0.50
2023-05-04T23:16:50.488Z,0.60
2023-05-04T23:19:17.977Z,0.60
2023-05-04T23:21:45.690Z,0.50
2023-05-04T23:24:13.173Z,0.50
2023-05-04T23:26:40.997Z,0.60
2023-05-04T23:29:08.492Z,0.50
2023-05-04T23:31:37.362Z,0.50
2023-05-04T23:34:04.841Z,0.55
2023-05-04T23:36:32.306Z,0.57
2023-05-04T23:38:59.840Z,0.50
2023-05-04T23:41:27.364Z,0.50
2023-05-04T23:43:58.739Z,0.50
2023-05-04T23:46:26.270Z,0.50
2023-05-04T23:48:55.117Z,0.40
2023-05-04T23:51:22.612Z,0.50
2023-05-04T23:53:50.113Z,0.43
2023-05-04T23:56:17.792Z,0.50
2023-05-04T23:58:45.269Z,0.50
